Timmersdorf Airport LOGT

Flugplatz Daten

Name: Timmersdorf Airport

Ident: LOGT

Lat: 47,38000107

Long: 14,96829987

Platzhöhe: 2060 ft

IataCode:

City: Timmersdorf

Metar

2019/05/11 11:53
KTUL 111153Z 35004KT 10SM -RA OVC005 12/11 A2996 RMK AO2 DZB24E42RAB42 SLP142 PCPN VRY LOGT P0000 60039 70046 T01170111 10122 20117 56006 $

Taf

Gewünschte Webcam nicht vorhanden? Dann fügen Sie eine hinzu. Sie wird dann so schnell wie möglich freigeschaltet
Url: Title: